sensor_id;sensor_type;location;lat;lon;timestamp;pressure;altitude;pressure_sealevel;temperature;humidity
73297;BME280;61524;50.938;11.396;2022-10-29T00:00:23;99646.28;;;13.65;92.08
73297;BME280;61524;50.938;11.396;2022-10-29T00:02:48;99650.59;;;13.66;92.26
73297;BME280;61524;50.938;11.396;2022-10-29T00:05:14;99630.38;;;13.58;92.07
73297;BME280;61524;50.938;11.396;2022-10-29T00:07:39;99630.91;;;13.60;92.82
73297;BME280;61524;50.938;11.396;2022-10-29T00:10:05;99646.00;;;13.61;92.03
73297;BME280;61524;50.938;11.396;2022-10-29T00:12:31;99644.28;;;13.55;92.32
73297;BME280;61524;50.938;11.396;2022-10-29T00:14:56;99650.34;;;13.68;91.58
73297;BME280;61524;50.938;11.396;2022-10-29T00:17:22;99650.41;;;13.73;91.91
73297;BME280;61524;50.938;11.396;2022-10-29T00:19:47;99656.38;;;13.80;91.33
73297;BME280;61524;50.938;11.396;2022-10-29T00:22:13;99647.41;;;13.96;90.61
73297;BME280;61524;50.938;11.396;2022-10-29T00:24:39;99628.78;;;13.84;91.10
73297;BME280;61524;50.938;11.396;2022-10-29T00:27:04;99637.94;;;13.61;92.73
73297;BME280;61524;50.938;11.396;2022-10-29T00:29:30;99644.13;;;13.62;92.80
73297;BME280;61524;50.938;11.396;2022-10-29T00:31:55;99634.19;;;13.62;92.62
73297;BME280;61524;50.938;11.396;2022-10-29T00:34:21;99647.03;;;13.60;92.60
73297;BME280;61524;50.938;11.396;2022-10-29T00:36:46;99642.66;;;13.54;92.33
73297;BME280;61524;50.938;11.396;2022-10-29T00:39:13;99635.88;;;13.47;92.73
73297;BME280;61524;50.938;11.396;2022-10-29T00:41:39;99633.66;;;13.65;91.92
73297;BME280;61524;50.938;11.396;2022-10-29T00:46:40;99656.03;;;13.49;92.41
73297;BME280;61524;50.938;11.396;2022-10-29T00:49:07;99646.31;;;13.43;92.92
73297;BME280;61524;50.938;11.396;2022-10-29T00:51:33;99657.78;;;13.38;92.79
73297;BME280;61524;50.938;11.396;2022-10-29T00:54:05;99656.28;;;13.26;93.20
73297;BME280;61524;50.938;11.396;2022-10-29T00:56:35;99666.38;;;13.19;93.83
73297;BME280;61524;50.938;11.396;2022-10-29T00:59:02;99661.56;;;13.21;94.01
73297;BME280;61524;50.938;11.396;2022-10-29T01:01:29;99645.56;;;13.09;94.75
73297;BME280;61524;50.938;11.396;2022-10-29T01:03:55;99652.50;;;13.05;94.67
73297;BME280;61524;50.938;11.396;2022-10-29T01:06:22;99647.88;;;13.00;94.87
73297;BME280;61524;50.938;11.396;2022-10-29T01:08:48;99648.84;;;12.94;94.87
73297;BME280;61524;50.938;11.396;2022-10-29T01:31:35;99648.16;;;12.31;97.08
73297;BME280;61524;50.938;11.396;2022-10-29T01:34:21;99644.34;;;12.27;97.12
73297;BME280;61524;50.938;11.396;2022-10-29T01:36:57;99647.50;;;12.24;97.41
73297;BME280;61524;50.938;11.396;2022-10-29T01:39:37;99640.91;;;12.15;97.91
73297;BME280;61524;50.938;11.396;2022-10-29T01:42:36;99656.69;;;12.12;97.89
73297;BME280;61524;50.938;11.396;2022-10-29T01:47:42;99660.47;;;12.16;98.12
73297;BME280;61524;50.938;11.396;2022-10-29T01:50:12;99648.22;;;12.03;97.79
73297;BME280;61524;50.938;11.396;2022-10-29T01:52:40;99658.09;;;12.02;98.05
73297;BME280;61524;50.938;11.396;2022-10-29T01:55:06;99668.06;;;11.90;98.18
73297;BME280;61524;50.938;11.396;2022-10-29T01:57:33;99652.81;;;11.91;98.33
73297;BME280;61524;50.938;11.396;2022-10-29T02:03:14;99659.28;;;11.66;98.83
73297;BME280;61524;50.938;11.396;2022-10-29T02:08:46;99658.00;;;11.69;99.77
73297;BME280;61524;50.938;11.396;2022-10-29T02:14:07;99666.25;;;11.67;99.63
73297;BME280;61524;50.938;11.396;2022-10-29T02:16:36;99658.59;;;11.59;99.67
73297;BME280;61524;50.938;11.396;2022-10-29T02:19:01;99660.03;;;11.50;99.68
73297;BME280;61524;50.938;11.396;2022-10-29T02:21:29;99666.19;;;11.50;99.49
73297;BME280;61524;50.938;11.396;2022-10-29T02:23:54;99673.09;;;11.46;99.68
73297;BME280;61524;50.938;11.396;2022-10-29T02:26:20;99676.81;;;11.34;99.99
73297;BME280;61524;50.938;11.396;2022-10-29T02:28:46;99674.03;;;11.28;99.86
73297;BME280;61524;50.938;11.396;2022-10-29T02:31:11;99679.88;;;11.25;100.00
73297;BME280;61524;50.938;11.396;2022-10-29T02:33:36;99672.88;;;11.13;100.00
73297;BME280;61524;50.938;11.396;2022-10-29T02:36:02;99673.13;;;11.11;100.00
73297;BME280;61524;50.938;11.396;2022-10-29T02:38:28;99665.91;;;11.12;100.00
73297;BME280;61524;50.938;11.396;2022-10-29T02:40:53;99670.59;;;11.04;100.00
73297;BME280;61524;50.938;11.396;2022-10-29T02:43:19;99664.31;;;10.99;100.00
73297;BME280;61524;50.938;11.396;2022-10-29T02:45:44;99664.75;;;10.96;100.00
73297;BME280;61524;50.938;11.396;2022-10-29T02:48:10;99665.25;;;10.93;100.00
73297;BME280;61524;50.938;11.396;2022-10-29T02:50:36;99649.66;;;10.90;100.00
73297;BME280;61524;50.938;11.396;2022-10-29T02:53:01;99657.56;;;10.85;100.00
73297;BME280;61524;50.938;11.396;2022-10-29T02:55:26;99663.41;;;10.82;100.00
73297;BME280;61524;50.938;11.396;2022-10-29T02:57:52;99657.44;;;10.80;100.00
73297;BME280;61524;50.938;11.396;2022-10-29T03:00:17;99663.03;;;10.66;100.00
73297;BME280;61524;50.938;11.396;2022-10-29T03:02:43;99654.66;;;10.63;100.00
73297;BME280;61524;50.938;11.396;2022-10-29T03:05:09;99654.22;;;10.66;100.00
73297;BME280;61524;50.938;11.396;2022-10-29T03:07:35;99665.59;;;10.73;100.00
73297;BME280;61524;50.938;11.396;2022-10-29T03:10:06;99659.19;;;10.74;100.00
73297;BME280;61524;50.938;11.396;2022-10-29T03:12:33;99658.94;;;10.75;100.00
73297;BME280;61524;50.938;11.396;2022-10-29T03:14:58;99661.97;;;10.67;100.00
73297;BME280;61524;50.938;11.396;2022-10-29T03:17:24;99659.19;;;10.62;100.00
73297;BME280;61524;50.938;11.396;2022-10-29T03:19:49;99654.78;;;10.56;100.00
73297;BME280;61524;50.938;11.396;2022-10-29T03:22:15;99645.81;;;10.50;100.00
73297;BME280;61524;50.938;11.396;2022-10-29T03:24:40;99647.88;;;10.37;100.00
73297;BME280;61524;50.938;11.396;2022-10-29T03:27:06;99650.91;;;10.29;100.00
73297;BME280;61524;50.938;11.396;2022-10-29T03:29:31;99643.22;;;10.32;100.00
73297;BME280;61524;50.938;11.396;2022-10-29T03:31:57;99647.31;;;10.35;100.00
73297;BME280;61524;50.938;11.396;2022-10-29T03:34:22;99652.66;;;10.35;100.00
73297;BME280;61524;50.938;11.396;2022-10-29T03:36:48;99650.56;;;10.37;100.00
73297;BME280;61524;50.938;11.396;2022-10-29T03:39:14;99653.56;;;10.29;100.00
73297;BME280;61524;50.938;11.396;2022-10-29T03:41:39;99662.84;;;10.26;100.00
73297;BME280;61524;50.938;11.396;2022-10-29T03:44:05;99658.16;;;10.21;100.00
73297;BME280;61524;50.938;11.396;2022-10-29T03:46:30;99662.59;;;10.28;100.00
73297;BME280;61524;50.938;11.396;2022-10-29T03:48:56;99661.78;;;10.27;100.00
73297;BME280;61524;50.938;11.396;2022-10-29T03:51:22;99661.59;;;10.29;100.00
73297;BME280;61524;50.938;11.396;2022-10-29T03:53:47;99657.25;;;10.28;100.00
73297;BME280;61524;50.938;11.396;2022-10-29T03:56:13;99664.13;;;10.23;100.00
73297;BME280;61524;50.938;11.396;2022-10-29T03:58:38;99667.09;;;10.15;100.00
73297;BME280;61524;50.938;11.396;2022-10-29T04:01:06;99663.94;;;10.07;100.00
73297;BME280;61524;50.938;11.396;2022-10-29T04:03:33;99668.81;;;10.10;100.00
73297;BME280;61524;50.938;11.396;2022-10-29T04:06:00;99672.91;;;10.12;100.00
73297;BME280;61524;50.938;11.396;2022-10-29T04:08:26;99674.97;;;10.10;100.00
73297;BME280;61524;50.938;11.396;2022-10-29T04:10:52;99674.38;;;10.08;100.00
73297;BME280;61524;50.938;11.396;2022-10-29T04:13:18;99666.94;;;10.10;100.00
73297;BME280;61524;50.938;11.396;2022-10-29T04:15:44;99666.84;;;10.17;100.00
73297;BME280;61524;50.938;11.396;2022-10-29T04:18:10;99664.88;;;10.12;100.00
73297;BME280;61524;50.938;11.396;2022-10-29T04:20:38;99672.19;;;10.17;100.00
73297;BME280;61524;50.938;11.396;2022-10-29T04:23:04;99684.53;;;10.18;100.00
73297;BME280;61524;50.938;11.396;2022-10-29T04:25:29;99684.16;;;10.14;100.00
73297;BME280;61524;50.938;11.396;2022-10-29T04:27:55;99686.69;;;10.09;100.00
73297;BME280;61524;50.938;11.396;2022-10-29T04:30:22;99693.63;;;9.98;100.00
73297;BME280;61524;50.938;11.396;2022-10-29T04:32:48;99693.88;;;9.79;100.00
73297;BME280;61524;50.938;11.396;2022-10-29T04:35:13;99686.31;;;9.76;100.00
73297;BME280;61524;50.938;11.396;2022-10-29T04:37:39;99687.81;;;9.71;100.00
73297;BME280;61524;50.938;11.396;2022-10-29T04:40:04;99678.13;;;9.59;100.00
73297;BME280;61524;50.938;11.396;2022-10-29T04:42:39;99682.09;;;9.68;100.00
73297;BME280;61524;50.938;11.396;2022-10-29T04:45:05;99677.00;;;9.66;100.00
73297;BME280;61524;50.938;11.396;2022-10-29T04:47:31;99677.56;;;9.68;100.00
73297;BME280;61524;50.938;11.396;2022-10-29T04:49:57;99692.09;;;9.72;100.00
73297;BME280;61524;50.938;11.396;2022-10-29T04:52:22;99695.81;;;9.71;100.00
73297;BME280;61524;50.938;11.396;2022-10-29T04:54:48;99689.44;;;9.72;100.00
73297;BME280;61524;50.938;11.396;2022-10-29T04:57:13;99690.91;;;9.68;100.00
73297;BME280;61524;50.938;11.396;2022-10-29T04:59:38;99695.09;;;9.64;100.00
73297;BME280;61524;50.938;11.396;2022-10-29T05:02:04;99702.50;;;9.62;100.00
73297;BME280;61524;50.938;11.396;2022-10-29T05:04:29;99689.16;;;9.62;100.00
73297;BME280;61524;50.938;11.396;2022-10-29T05:06:55;99693.09;;;9.60;100.00
73297;BME280;61524;50.938;11.396;2022-10-29T05:09:20;99686.00;;;9.54;100.00
73297;BME280;61524;50.938;11.396;2022-10-29T05:11:46;99698.03;;;9.56;100.00
73297;BME280;61524;50.938;11.396;2022-10-29T05:14:11;99692.38;;;9.53;100.00
73297;BME280;61524;50.938;11.396;2022-10-29T05:16:36;99696.28;;;9.50;100.00
73297;BME280;61524;50.938;11.396;2022-10-29T05:19:02;99689.97;;;9.44;100.00
73297;BME280;61524;50.938;11.396;2022-10-29T05:21:29;99697.16;;;9.44;100.00
73297;BME280;61524;50.938;11.396;2022-10-29T05:23:54;99695.03;;;9.34;100.00
73297;BME280;61524;50.938;11.396;2022-10-29T05:26:19;99697.31;;;9.31;100.00
73297;BME280;61524;50.938;11.396;2022-10-29T05:28:48;99696.72;;;9.29;100.00
73297;BME280;61524;50.938;11.396;2022-10-29T05:31:14;99695.09;;;9.28;100.00
73297;BME280;61524;50.938;11.396;2022-10-29T05:33:39;99691.97;;;9.31;100.00
73297;BME280;61524;50.938;11.396;2022-10-29T05:36:05;99692.66;;;9.26;100.00
73297;BME280;61524;50.938;11.396;2022-10-29T05:38:30;99677.91;;;9.24;100.00
73297;BME280;61524;50.938;11.396;2022-10-29T05:40:57;99693.00;;;9.30;100.00
73297;BME280;61524;50.938;11.396;2022-10-29T05:43:23;99685.69;;;9.25;100.00
73297;BME280;61524;50.938;11.396;2022-10-29T05:45:48;99687.34;;;9.26;100.00
73297;BME280;61524;50.938;11.396;2022-10-29T05:48:13;99699.00;;;9.25;100.00
73297;BME280;61524;50.938;11.396;2022-10-29T05:50:39;99688.97;;;9.27;100.00
73297;BME280;61524;50.938;11.396;2022-10-29T05:53:06;99685.25;;;9.28;100.00
73297;BME280;61524;50.938;11.396;2022-10-29T05:55:34;99694.22;;;9.34;100.00
73297;BME280;61524;50.938;11.396;2022-10-29T05:58:05;99700.34;;;9.34;100.00
73297;BME280;61524;50.938;11.396;2022-10-29T06:00:34;99705.03;;;9.39;100.00
73297;BME280;61524;50.938;11.396;2022-10-29T06:03:00;99696.22;;;9.38;100.00
73297;BME280;61524;50.938;11.396;2022-10-29T06:05:26;99683.47;;;9.40;100.00
73297;BME280;61524;50.938;11.396;2022-10-29T06:07:59;99701.94;;;9.42;100.00
73297;BME280;61524;50.938;11.396;2022-10-29T06:10:25;99694.06;;;9.47;100.00
73297;BME280;61524;50.938;11.396;2022-10-29T06:12:51;99701.84;;;9.49;100.00
73297;BME280;61524;50.938;11.396;2022-10-29T06:15:17;99703.25;;;9.51;100.00
73297;BME280;61524;50.938;11.396;2022-10-29T06:17:43;99702.66;;;9.49;100.00
73297;BME280;61524;50.938;11.396;2022-10-29T06:20:11;99703.09;;;9.46;100.00
73297;BME280;61524;50.938;11.396;2022-10-29T06:22:37;99698.94;;;9.50;100.00
73297;BME280;61524;50.938;11.396;2022-10-29T06:25:02;99704.44;;;9.55;100.00
73297;BME280;61524;50.938;11.396;2022-10-29T06:27:28;99708.06;;;9.61;100.00
73297;BME280;61524;50.938;11.396;2022-10-29T06:29:53;99702.94;;;9.59;100.00
73297;BME280;61524;50.938;11.396;2022-10-29T06:32:19;99700.28;;;9.59;100.00
73297;BME280;61524;50.938;11.396;2022-10-29T06:34:44;99700.06;;;9.61;100.00
73297;BME280;61524;50.938;11.396;2022-10-29T06:37:09;99707.63;;;9.64;100.00
73297;BME280;61524;50.938;11.396;2022-10-29T06:39:35;99707.81;;;9.62;100.00
73297;BME280;61524;50.938;11.396;2022-10-29T06:42:01;99715.31;;;9.72;100.00
73297;BME280;61524;50.938;11.396;2022-10-29T06:44:26;99710.63;;;9.67;100.00
73297;BME280;61524;50.938;11.396;2022-10-29T06:46:52;99708.78;;;9.68;100.00
73297;BME280;61524;50.938;11.396;2022-10-29T06:49:19;99702.56;;;9.74;100.00
73297;BME280;61524;50.938;11.396;2022-10-29T06:51:44;99692.38;;;9.83;100.00
73297;BME280;61524;50.938;11.396;2022-10-29T06:54:10;99697.28;;;9.86;100.00
73297;BME280;61524;50.938;11.396;2022-10-29T06:56:35;99695.47;;;9.98;100.00
73297;BME280;61524;50.938;11.396;2022-10-29T06:59:01;99695.50;;;10.10;100.00
73297;BME280;61524;50.938;11.396;2022-10-29T07:01:26;99692.53;;;10.18;100.00
73297;BME280;61524;50.938;11.396;2022-10-29T07:03:53;99703.28;;;10.30;100.00
73297;BME280;61524;50.938;11.396;2022-10-29T07:06:18;99682.28;;;10.33;100.00
73297;BME280;61524;50.938;11.396;2022-10-29T07:08:44;99682.72;;;10.42;100.00
73297;BME280;61524;50.938;11.396;2022-10-29T07:11:09;99669.25;;;10.48;100.00
73297;BME280;61524;50.938;11.396;2022-10-29T07:13:35;99682.66;;;10.60;100.00
73297;BME280;61524;50.938;11.396;2022-10-29T07:16:00;99682.19;;;10.63;100.00
73297;BME280;61524;50.938;11.396;2022-10-29T07:18:26;99680.00;;;10.72;100.00
73297;BME280;61524;50.938;11.396;2022-10-29T07:20:51;99687.31;;;10.88;100.00
73297;BME280;61524;50.938;11.396;2022-10-29T07:23:16;99691.63;;;11.01;100.00
73297;BME280;61524;50.938;11.396;2022-10-29T07:25:42;99688.94;;;11.13;100.00
73297;BME280;61524;50.938;11.396;2022-10-29T07:28:14;99699.97;;;11.28;100.00
73297;BME280;61524;50.938;11.396;2022-10-29T07:30:41;99699.00;;;11.46;100.00
73297;BME280;61524;50.938;11.396;2022-10-29T07:33:06;99702.94;;;11.55;100.00
73297;BME280;61524;50.938;11.396;2022-10-29T07:35:33;99678.84;;;11.55;100.00
73297;BME280;61524;50.938;11.396;2022-10-29T07:38:00;99695.88;;;11.77;100.00
73297;BME280;61524;50.938;11.396;2022-10-29T07:40:26;99702.06;;;11.90;100.00
73297;BME280;61524;50.938;11.396;2022-10-29T07:42:52;99709.56;;;12.04;100.00
73297;BME280;61524;50.938;11.396;2022-10-29T07:45:17;99706.16;;;12.09;100.00
73297;BME280;61524;50.938;11.396;2022-10-29T07:47:43;99698.53;;;12.01;99.99
73297;BME280;61524;50.938;11.396;2022-10-29T07:50:08;99705.97;;;11.99;100.00
73297;BME280;61524;50.938;11.396;2022-10-29T07:52:34;99695.34;;;12.04;99.50
73297;BME280;61524;50.938;11.396;2022-10-29T07:54:59;99706.25;;;12.14;99.28
73297;BME280;61524;50.938;11.396;2022-10-29T07:57:27;99710.53;;;12.27;98.79
73297;BME280;61524;50.938;11.396;2022-10-29T07:59:52;99692.66;;;12.32;98.78
73297;BME280;61524;50.938;11.396;2022-10-29T08:02:18;99702.09;;;12.52;98.57
73297;BME280;61524;50.938;11.396;2022-10-29T08:04:43;99705.19;;;12.60;98.90
73297;BME280;61524;50.938;11.396;2022-10-29T08:07:08;99714.06;;;12.61;98.83
73297;BME280;61524;50.938;11.396;2022-10-29T08:09:34;99697.63;;;12.74;98.24
73297;BME280;61524;50.938;11.396;2022-10-29T08:11:59;99717.38;;;12.85;97.48
73297;BME280;61524;50.938;11.396;2022-10-29T08:14:25;99706.56;;;12.80;98.16
73297;BME280;61524;50.938;11.396;2022-10-29T08:16:52;99707.44;;;12.85;98.54
73297;BME280;61524;50.938;11.396;2022-10-29T08:19:19;99715.34;;;12.92;98.33
73297;BME280;61524;50.938;11.396;2022-10-29T08:21:44;99715.81;;;13.06;98.09
73297;BME280;61524;50.938;11.396;2022-10-29T08:24:10;99718.16;;;13.19;97.90
73297;BME280;61524;50.938;11.396;2022-10-29T08:26:35;99718.34;;;13.29;97.42
73297;BME280;61524;50.938;11.396;2022-10-29T08:29:01;99710.91;;;13.36;97.50
73297;BME280;61524;50.938;11.396;2022-10-29T08:31:26;99708.16;;;13.53;97.47
73297;BME280;61524;50.938;11.396;2022-10-29T08:33:52;99713.94;;;13.62;97.29
73297;BME280;61524;50.938;11.396;2022-10-29T08:36:17;99706.00;;;13.72;96.92
73297;BME280;61524;50.938;11.396;2022-10-29T08:38:43;99701.34;;;13.89;97.27
73297;BME280;61524;50.938;11.396;2022-10-29T08:49:50;99672.84;;;14.69;94.23
73297;BME280;61524;50.938;11.396;2022-10-29T08:52:26;99669.34;;;14.74;93.19
73297;BME280;61524;50.938;11.396;2022-10-29T08:54:59;99669.72;;;14.88;92.68
73297;BME280;61524;50.938;11.396;2022-10-29T08:57:31;99675.50;;;15.07;92.79
73297;BME280;61524;50.938;11.396;2022-10-29T09:00:07;99672.88;;;15.22;91.84
73297;BME280;61524;50.938;11.396;2022-10-29T09:02:37;99677.03;;;15.40;91.85
73297;BME280;61524;50.938;11.396;2022-10-29T09:05:05;99685.69;;;15.52;91.35
73297;BME280;61524;50.938;11.396;2022-10-29T09:07:49;99686.00;;;15.61;90.97
73297;BME280;61524;50.938;11.396;2022-10-29T09:24:34;99678.38;;;16.61;86.15
73297;BME280;61524;50.938;11.396;2022-10-29T09:27:21;99672.72;;;16.83;86.13
73297;BME280;61524;50.938;11.396;2022-10-29T09:32:34;99677.00;;;17.10;84.94
73297;BME280;61524;50.938;11.396;2022-10-29T09:35:10;99676.38;;;17.38;84.79
73297;BME280;61524;50.938;11.396;2022-10-29T09:37:46;99664.22;;;17.36;84.50
73297;BME280;61524;50.938;11.396;2022-10-29T09:42:43;99662.81;;;17.53;83.91
73297;BME280;61524;50.938;11.396;2022-10-29T09:45:16;99663.84;;;17.63;83.66
73297;BME280;61524;50.938;11.396;2022-10-29T09:48:39;99649.66;;;17.91;82.47
73297;BME280;61524;50.938;11.396;2022-10-29T09:53:51;99650.16;;;18.03;81.85
73297;BME280;61524;50.938;11.396;2022-10-29T09:56:16;99652.81;;;18.08;81.87
73297;BME280;61524;50.938;11.396;2022-10-29T09:58:45;99656.03;;;18.10;80.61
73297;BME280;61524;50.938;11.396;2022-10-29T10:01:13;99644.66;;;18.14;80.48
73297;BME280;61524;50.938;11.396;2022-10-29T10:03:42;99643.50;;;18.25;79.97
73297;BME280;61524;50.938;11.396;2022-10-29T10:06:12;99642.34;;;18.36;80.45
73297;BME280;61524;50.938;11.396;2022-10-29T10:09:04;99642.09;;;18.32;80.57
73297;BME280;61524;50.938;11.396;2022-10-29T10:13:59;99637.56;;;18.57;79.70
73297;BME280;61524;50.938;11.396;2022-10-29T10:16:28;99640.44;;;18.66;78.86
73297;BME280;61524;50.938;11.396;2022-10-29T10:18:56;99636.63;;;18.72;79.15
73297;BME280;61524;50.938;11.396;2022-10-29T10:21:28;99636.94;;;18.65;78.91
73297;BME280;61524;50.938;11.396;2022-10-29T10:23:56;99644.25;;;18.65;79.74
73297;BME280;61524;50.938;11.396;2022-10-29T10:26:35;99636.06;;;18.75;79.70
73297;BME280;61524;50.938;11.396;2022-10-29T10:29:14;99638.19;;;18.78;80.76
73297;BME280;61524;50.938;11.396;2022-10-29T10:31:44;99642.47;;;18.84;80.03
73297;BME280;61524;50.938;11.396;2022-10-29T10:34:14;99634.88;;;18.86;79.96
73297;BME280;61524;50.938;11.396;2022-10-29T10:36:42;99633.81;;;18.82;81.46
73297;BME280;61524;50.938;11.396;2022-10-29T10:41:44;99629.19;;;18.82;82.38
73297;BME280;61524;50.938;11.396;2022-10-29T10:44:11;99623.22;;;18.85;82.33
73297;BME280;61524;50.938;11.396;2022-10-29T10:46:40;99620.75;;;18.89;82.30
73297;BME280;61524;50.938;11.396;2022-10-29T10:49:15;99621.31;;;18.86;83.13
73297;BME280;61524;50.938;11.396;2022-10-29T10:51:47;99627.78;;;19.14;81.60
73297;BME280;61524;50.938;11.396;2022-10-29T10:54:31;99632.16;;;19.34;81.23
73297;BME280;61524;50.938;11.396;2022-10-29T10:59:24;99618.69;;;19.48;79.21
73297;BME280;61524;50.938;11.396;2022-10-29T11:01:52;99614.31;;;19.52;77.00
73297;BME280;61524;50.938;11.396;2022-10-29T11:04:28;99624.66;;;19.50;79.04
73297;BME280;61524;50.938;11.396;2022-10-29T11:07:00;99616.94;;;19.38;75.91
73297;BME280;61524;50.938;11.396;2022-10-29T11:09:33;99619.00;;;19.70;75.61
73297;BME280;61524;50.938;11.396;2022-10-29T11:17:24;99606.91;;;19.57;76.24
73297;BME280;61524;50.938;11.396;2022-10-29T11:19:54;99593.97;;;19.73;76.01
73297;BME280;61524;50.938;11.396;2022-10-29T11:25:23;99594.44;;;19.80;76.29
73297;BME280;61524;50.938;11.396;2022-10-29T11:27:55;99596.16;;;20.09;73.69
73297;BME280;61524;50.938;11.396;2022-10-29T11:30:23;99599.22;;;20.21;75.06
73297;BME280;61524;50.938;11.396;2022-10-29T11:38:23;99585.81;;;20.11;74.97
73297;BME280;61524;50.938;11.396;2022-10-29T11:43:22;99583.63;;;20.13;75.39
73297;BME280;61524;50.938;11.396;2022-10-29T11:48:58;99580.91;;;20.13;74.38
73297;BME280;61524;50.938;11.396;2022-10-29T11:56:55;99553.41;;;20.19;76.29
73297;BME280;61524;50.938;11.396;2022-10-29T12:05:55;99555.25;;;20.38;71.93
73297;BME280;61524;50.938;11.396;2022-10-29T12:08:38;99553.84;;;20.40;72.99
73297;BME280;61524;50.938;11.396;2022-10-29T12:22:03;99546.91;;;20.34;71.13
73297;BME280;61524;50.938;11.396;2022-10-29T12:30:07;99524.34;;;20.34;70.94
73297;BME280;61524;50.938;11.396;2022-10-29T12:35:17;99522.72;;;20.52;70.06
73297;BME280;61524;50.938;11.396;2022-10-29T12:40:40;99524.72;;;20.60;70.84
73297;BME280;61524;50.938;11.396;2022-10-29T12:43:25;99518.94;;;20.66;70.44
73297;BME280;61524;50.938;11.396;2022-10-29T12:49:09;99513.06;;;20.59;71.58
73297;BME280;61524;50.938;11.396;2022-10-29T12:56:49;99496.97;;;20.49;71.22
73297;BME280;61524;50.938;11.396;2022-10-29T13:01:50;99499.19;;;20.47;71.41
73297;BME280;61524;50.938;11.396;2022-10-29T13:04:28;99495.38;;;20.48;71.25
73297;BME280;61524;50.938;11.396;2022-10-29T13:09:34;99489.06;;;20.34;71.64
73297;BME280;61524;50.938;11.396;2022-10-29T13:12:03;99490.09;;;20.24;71.65
73297;BME280;61524;50.938;11.396;2022-10-29T13:14:49;99485.88;;;20.18;71.48
73297;BME280;61524;50.938;11.396;2022-10-29T13:17:35;99485.66;;;20.14;72.63
73297;BME280;61524;50.938;11.396;2022-10-29T13:30:34;99483.13;;;20.04;72.85
73297;BME280;61524;50.938;11.396;2022-10-29T13:33:00;99481.59;;;20.12;71.72
73297;BME280;61524;50.938;11.396;2022-10-29T13:43:29;99478.84;;;20.31;69.99
73297;BME280;61524;50.938;11.396;2022-10-29T13:45:37;99487.47;;;20.33;69.74
73297;BME280;61524;50.938;11.396;2022-10-29T13:48:29;99478.22;;;20.34;70.10
73297;BME280;61524;50.938;11.396;2022-10-29T13:50:57;99480.03;;;20.38;69.87
73297;BME280;61524;50.938;11.396;2022-10-29T13:53:34;99483.28;;;20.40;67.72
73297;BME280;61524;50.938;11.396;2022-10-29T13:56:07;99489.59;;;20.36;69.05
73297;BME280;61524;50.938;11.396;2022-10-29T13:58:35;99483.56;;;20.25;67.95
73297;BME280;61524;50.938;11.396;2022-10-29T14:01:07;99485.13;;;20.12;68.44
73297;BME280;61524;50.938;11.396;2022-10-29T14:03:43;99478.41;;;20.10;68.13
73297;BME280;61524;50.938;11.396;2022-10-29T14:06:23;99487.84;;;20.12;66.73
73297;BME280;61524;50.938;11.396;2022-10-29T14:09:04;99474.19;;;20.17;67.25
73297;BME280;61524;50.938;11.396;2022-10-29T14:11:38;99475.50;;;20.20;68.22
73297;BME280;61524;50.938;11.396;2022-10-29T14:14:05;99470.88;;;20.21;67.65
73297;BME280;61524;50.938;11.396;2022-10-29T14:16:42;99476.81;;;20.23;67.95
73297;BME280;61524;50.938;11.396;2022-10-29T14:19:12;99486.22;;;20.11;68.80
73297;BME280;61524;50.938;11.396;2022-10-29T14:21:39;99478.19;;;20.06;68.61
73297;BME280;61524;50.938;11.396;2022-10-29T14:24:07;99467.41;;;20.01;68.28
73297;BME280;61524;50.938;11.396;2022-10-29T14:26:40;99474.97;;;20.04;68.43
73297;BME280;61524;50.938;11.396;2022-10-29T14:29:23;99480.00;;;19.97;69.32
73297;BME280;61524;50.938;11.396;2022-10-29T14:32:15;99489.00;;;19.92;68.88
73297;BME280;61524;50.938;11.396;2022-10-29T14:34:44;99489.22;;;19.96;68.34
73297;BME280;61524;50.938;11.396;2022-10-29T14:37:31;99481.19;;;19.91;69.41
73297;BME280;61524;50.938;11.396;2022-10-29T14:40:00;99465.44;;;19.74;69.36
73297;BME280;61524;50.938;11.396;2022-10-29T14:42:33;99473.38;;;19.71;69.15
73297;BME280;61524;50.938;11.396;2022-10-29T14:45:03;99475.66;;;19.63;69.46
73297;BME280;61524;50.938;11.396;2022-10-29T14:47:35;99473.84;;;19.59;69.06
73297;BME280;61524;50.938;11.396;2022-10-29T14:50:01;99473.97;;;19.49;69.94
73297;BME280;61524;50.938;11.396;2022-10-29T14:52:37;99468.97;;;19.37;69.50
73297;BME280;61524;50.938;11.396;2022-10-29T14:55:25;99480.84;;;19.41;69.84
73297;BME280;61524;50.938;11.396;2022-10-29T15:01:01;99489.72;;;19.28;69.81
73297;BME280;61524;50.938;11.396;2022-10-29T15:03:31;99489.78;;;19.23;69.81
73297;BME280;61524;50.938;11.396;2022-10-29T15:06:13;99485.53;;;19.17;70.10
73297;BME280;61524;50.938;11.396;2022-10-29T15:08:41;99482.38;;;19.09;70.29
73297;BME280;61524;50.938;11.396;2022-10-29T15:14:04;99483.66;;;18.93;70.68
73297;BME280;61524;50.938;11.396;2022-10-29T15:16:30;99481.03;;;18.88;71.13
73297;BME280;61524;50.938;11.396;2022-10-29T15:18:57;99483.84;;;18.78;72.84
73297;BME280;61524;50.938;11.396;2022-10-29T15:21:33;99481.03;;;18.64;74.17
73297;BME280;61524;50.938;11.396;2022-10-29T15:24:02;99485.25;;;18.51;75.70
73297;BME280;61524;50.938;11.396;2022-10-29T15:26:30;99475.75;;;18.30;75.70
73297;BME280;61524;50.938;11.396;2022-10-29T15:28:58;99470.44;;;18.20;76.04
73297;BME280;61524;50.938;11.396;2022-10-29T15:31:39;99472.69;;;18.07;76.87
73297;BME280;61524;50.938;11.396;2022-10-29T15:34:16;99469.31;;;17.92;77.17
73297;BME280;61524;50.938;11.396;2022-10-29T15:36:51;99467.28;;;17.78;78.02
73297;BME280;61524;50.938;11.396;2022-10-29T15:41:49;99466.94;;;17.51;80.53